sensor_id;sensor_type;location;lat;lon;timestamp;temperature;humidity
29731;DHT22;16639;51.488;0.152;2023-11-19T00:00:19;11.70;99.90
29731;DHT22;16639;51.488;0.152;2023-11-19T00:02:46;11.70;99.90
29731;DHT22;16639;51.488;0.152;2023-11-19T00:05:15;12.20;99.90
29731;DHT22;16639;51.488;0.152;2023-11-19T00:07:42;11.70;99.90
29731;DHT22;16639;51.488;0.152;2023-11-19T00:10:11;11.60;99.90
29731;DHT22;16639;51.488;0.152;2023-11-19T00:12:44;11.70;99.90
29731;DHT22;16639;51.488;0.152;2023-11-19T00:15:21;11.60;99.90
29731;DHT22;16639;51.488;0.152;2023-11-19T00:17:48;11.60;99.90
29731;DHT22;16639;51.488;0.152;2023-11-19T00:20:18;11.60;99.90
29731;DHT22;16639;51.488;0.152;2023-11-19T00:22:46;11.60;99.90
29731;DHT22;16639;51.488;0.152;2023-11-19T00:25:17;11.50;99.90
29731;DHT22;16639;51.488;0.152;2023-11-19T00:27:45;11.60;99.90
29731;DHT22;16639;51.488;0.152;2023-11-19T00:30:13;11.60;99.90
29731;DHT22;16639;51.488;0.152;2023-11-19T00:32:42;11.50;99.90
29731;DHT22;16639;51.488;0.152;2023-11-19T00:35:10;11.50;99.90
29731;DHT22;16639;51.488;0.152;2023-11-19T00:37:37;11.50;99.90
29731;DHT22;16639;51.488;0.152;2023-11-19T00:40:06;11.50;99.90
29731;DHT22;16639;51.488;0.152;2023-11-19T00:42:33;11.40;99.90
29731;DHT22;16639;51.488;0.152;2023-11-19T00:45:03;11.50;99.90
29731;DHT22;16639;51.488;0.152;2023-11-19T00:47:30;11.50;99.90
29731;DHT22;16639;51.488;0.152;2023-11-19T00:49:58;11.50;99.90
29731;DHT22;16639;51.488;0.152;2023-11-19T00:52:26;11.50;99.90
29731;DHT22;16639;51.488;0.152;2023-11-19T00:54:53;11.50;99.90
29731;DHT22;16639;51.488;0.152;2023-11-19T00:57:21;11.40;99.90
29731;DHT22;16639;51.488;0.152;2023-11-19T00:59:48;11.50;99.90
29731;DHT22;16639;51.488;0.152;2023-11-19T01:02:16;11.50;99.90
29731;DHT22;16639;51.488;0.152;2023-11-19T01:04:43;11.40;99.90
29731;DHT22;16639;51.488;0.152;2023-11-19T01:07:11;11.50;99.90
29731;DHT22;16639;51.488;0.152;2023-11-19T01:09:43;11.40;99.90
29731;DHT22;16639;51.488;0.152;2023-11-19T01:12:11;11.40;99.90
29731;DHT22;16639;51.488;0.152;2023-11-19T01:14:38;11.40;99.90
29731;DHT22;16639;51.488;0.152;2023-11-19T01:17:06;11.50;99.90
29731;DHT22;16639;51.488;0.152;2023-11-19T01:19:33;11.50;99.90
29731;DHT22;16639;51.488;0.152;2023-11-19T01:22:01;11.40;99.90
29731;DHT22;16639;51.488;0.152;2023-11-19T01:24:29;11.40;99.90
29731;DHT22;16639;51.488;0.152;2023-11-19T01:26:59;11.40;99.90
29731;DHT22;16639;51.488;0.152;2023-11-19T01:29:27;11.40;99.90
29731;DHT22;16639;51.488;0.152;2023-11-19T01:31:56;11.40;99.90
29731;DHT22;16639;51.488;0.152;2023-11-19T01:34:23;11.40;99.90
29731;DHT22;16639;51.488;0.152;2023-11-19T01:36:51;11.40;99.90
29731;DHT22;16639;51.488;0.152;2023-11-19T01:39:21;11.30;99.90
29731;DHT22;16639;51.488;0.152;2023-11-19T01:41:50;11.40;99.90
29731;DHT22;16639;51.488;0.152;2023-11-19T01:44:17;11.40;99.90
29731;DHT22;16639;51.488;0.152;2023-11-19T01:46:46;11.40;99.90
29731;DHT22;16639;51.488;0.152;2023-11-19T01:49:19;11.40;99.90
29731;DHT22;16639;51.488;0.152;2023-11-19T01:51:47;11.40;99.90
29731;DHT22;16639;51.488;0.152;2023-11-19T01:54:15;11.40;99.90
29731;DHT22;16639;51.488;0.152;2023-11-19T01:56:43;11.30;99.90
29731;DHT22;16639;51.488;0.152;2023-11-19T01:59:13;11.30;99.90
29731;DHT22;16639;51.488;0.152;2023-11-19T02:01:41;11.30;99.90
29731;DHT22;16639;51.488;0.152;2023-11-19T02:04:09;11.30;99.90
29731;DHT22;16639;51.488;0.152;2023-11-19T02:06:40;11.30;99.90
29731;DHT22;16639;51.488;0.152;2023-11-19T02:09:09;11.30;99.90
29731;DHT22;16639;51.488;0.152;2023-11-19T02:11:40;11.30;99.90
29731;DHT22;16639;51.488;0.152;2023-11-19T02:14:07;11.20;99.90
29731;DHT22;16639;51.488;0.152;2023-11-19T02:16:35;11.30;99.90
29731;DHT22;16639;51.488;0.152;2023-11-19T02:19:03;11.30;99.90
29731;DHT22;16639;51.488;0.152;2023-11-19T02:21:31;11.30;99.90
29731;DHT22;16639;51.488;0.152;2023-11-19T02:23:58;11.30;99.90
29731;DHT22;16639;51.488;0.152;2023-11-19T02:26:44;11.30;99.90
29731;DHT22;16639;51.488;0.152;2023-11-19T02:29:16;11.30;99.90
29731;DHT22;16639;51.488;0.152;2023-11-19T02:31:46;11.30;99.90
29731;DHT22;16639;51.488;0.152;2023-11-19T02:34:14;11.30;99.90
29731;DHT22;16639;51.488;0.152;2023-11-19T02:36:42;11.50;99.90
29731;DHT22;16639;51.488;0.152;2023-11-19T02:39:10;11.30;99.90
29731;DHT22;16639;51.488;0.152;2023-11-19T02:41:41;11.30;99.90
29731;DHT22;16639;51.488;0.152;2023-11-19T02:44:09;11.30;99.90
29731;DHT22;16639;51.488;0.152;2023-11-19T02:46:36;10.90;99.90
29731;DHT22;16639;51.488;0.152;2023-11-19T02:49:04;11.30;99.90
29731;DHT22;16639;51.488;0.152;2023-11-19T02:51:31;11.30;99.90
29731;DHT22;16639;51.488;0.152;2023-11-19T02:53:59;11.20;99.90
29731;DHT22;16639;51.488;0.152;2023-11-19T02:56:26;12.00;99.90
29731;DHT22;16639;51.488;0.152;2023-11-19T02:58:56;11.30;99.90
29731;DHT22;16639;51.488;0.152;2023-11-19T03:01:25;11.30;99.90
29731;DHT22;16639;51.488;0.152;2023-11-19T03:03:59;11.20;99.90
29731;DHT22;16639;51.488;0.152;2023-11-19T03:06:29;11.30;99.90
29731;DHT22;16639;51.488;0.152;2023-11-19T03:08:57;11.20;99.90
29731;DHT22;16639;51.488;0.152;2023-11-19T03:11:25;11.20;99.90
29731;DHT22;16639;51.488;0.152;2023-11-19T03:13:52;11.20;99.90
29731;DHT22;16639;51.488;0.152;2023-11-19T03:16:20;11.20;99.90
29731;DHT22;16639;51.488;0.152;2023-11-19T03:18:47;11.20;99.90
29731;DHT22;16639;51.488;0.152;2023-11-19T03:21:16;11.20;99.90
29731;DHT22;16639;51.488;0.152;2023-11-19T03:23:43;11.20;99.90
29731;DHT22;16639;51.488;0.152;2023-11-19T03:26:11;11.20;99.90
29731;DHT22;16639;51.488;0.152;2023-11-19T03:28:38;11.10;99.90
29731;DHT22;16639;51.488;0.152;2023-11-19T03:31:06;11.10;99.90
29731;DHT22;16639;51.488;0.152;2023-11-19T03:33:36;11.10;99.90
29731;DHT22;16639;51.488;0.152;2023-11-19T03:36:05;11.10;99.90
29731;DHT22;16639;51.488;0.152;2023-11-19T03:38:34;11.20;99.90
29731;DHT22;16639;51.488;0.152;2023-11-19T03:41:01;11.20;99.90
29731;DHT22;16639;51.488;0.152;2023-11-19T03:43:31;11.10;99.90
29731;DHT22;16639;51.488;0.152;2023-11-19T03:45:58;11.20;99.90
29731;DHT22;16639;51.488;0.152;2023-11-19T03:48:26;11.40;99.90
29731;DHT22;16639;51.488;0.152;2023-11-19T03:50:53;11.20;99.90
29731;DHT22;16639;51.488;0.152;2023-11-19T03:53:20;11.20;99.90
29731;DHT22;16639;51.488;0.152;2023-11-19T03:55:48;11.30;99.90
29731;DHT22;16639;51.488;0.152;2023-11-19T03:58:17;11.30;99.90
29731;DHT22;16639;51.488;0.152;2023-11-19T04:00:44;11.30;99.90
29731;DHT22;16639;51.488;0.152;2023-11-19T04:03:14;11.40;99.90
29731;DHT22;16639;51.488;0.152;2023-11-19T04:05:42;11.30;99.90
29731;DHT22;16639;51.488;0.152;2023-11-19T04:08:09;11.30;99.90
29731;DHT22;16639;51.488;0.152;2023-11-19T04:10:38;11.30;99.90
29731;DHT22;16639;51.488;0.152;2023-11-19T04:13:05;11.30;99.90
29731;DHT22;16639;51.488;0.152;2023-11-19T04:15:33;11.30;99.90
29731;DHT22;16639;51.488;0.152;2023-11-19T04:18:00;11.30;99.90
29731;DHT22;16639;51.488;0.152;2023-11-19T04:20:28;11.30;99.90
29731;DHT22;16639;51.488;0.152;2023-11-19T04:22:57;11.40;99.90
29731;DHT22;16639;51.488;0.152;2023-11-19T04:25:24;11.30;99.90
29731;DHT22;16639;51.488;0.152;2023-11-19T04:27:53;11.30;99.90
29731;DHT22;16639;51.488;0.152;2023-11-19T04:30:23;11.40;99.90
29731;DHT22;16639;51.488;0.152;2023-11-19T04:32:51;11.30;99.90
29731;DHT22;16639;51.488;0.152;2023-11-19T04:35:19;11.30;99.90
29731;DHT22;16639;51.488;0.152;2023-11-19T04:37:46;11.30;99.90
29731;DHT22;16639;51.488;0.152;2023-11-19T04:40:14;11.30;99.90
29731;DHT22;16639;51.488;0.152;2023-11-19T04:42:42;11.30;99.90
29731;DHT22;16639;51.488;0.152;2023-11-19T04:45:10;11.30;99.90
29731;DHT22;16639;51.488;0.152;2023-11-19T04:47:37;11.30;99.90
29731;DHT22;16639;51.488;0.152;2023-11-19T04:50:06;11.30;99.90
29731;DHT22;16639;51.488;0.152;2023-11-19T04:52:33;11.30;99.90
29731;DHT22;16639;51.488;0.152;2023-11-19T04:55:01;11.30;99.90
29731;DHT22;16639;51.488;0.152;2023-11-19T04:57:29;11.30;99.90
29731;DHT22;16639;51.488;0.152;2023-11-19T04:59:57;11.30;99.90
29731;DHT22;16639;51.488;0.152;2023-11-19T05:02:24;11.30;99.90
29731;DHT22;16639;51.488;0.152;2023-11-19T05:04:52;11.30;99.90
29731;DHT22;16639;51.488;0.152;2023-11-19T05:07:20;11.30;99.90
29731;DHT22;16639;51.488;0.152;2023-11-19T05:09:48;11.50;99.90
29731;DHT22;16639;51.488;0.152;2023-11-19T05:12:15;11.30;99.90
29731;DHT22;16639;51.488;0.152;2023-11-19T05:14:44;11.20;99.90
29731;DHT22;16639;51.488;0.152;2023-11-19T05:17:20;11.30;99.90
29731;DHT22;16639;51.488;0.152;2023-11-19T05:19:47;11.30;99.90
29731;DHT22;16639;51.488;0.152;2023-11-19T05:22:16;11.60;99.90
29731;DHT22;16639;51.488;0.152;2023-11-19T05:24:44;11.30;99.90
29731;DHT22;16639;51.488;0.152;2023-11-19T05:27:12;11.40;99.90
29731;DHT22;16639;51.488;0.152;2023-11-19T05:29:40;11.40;99.90
29731;DHT22;16639;51.488;0.152;2023-11-19T05:32:09;11.30;99.90
29731;DHT22;16639;51.488;0.152;2023-11-19T05:34:36;11.40;99.90
29731;DHT22;16639;51.488;0.152;2023-11-19T05:37:18;11.40;99.90
29731;DHT22;16639;51.488;0.152;2023-11-19T05:39:46;11.40;99.90
29731;DHT22;16639;51.488;0.152;2023-11-19T05:42:13;11.40;99.90
29731;DHT22;16639;51.488;0.152;2023-11-19T05:44:41;11.30;99.90
29731;DHT22;16639;51.488;0.152;2023-11-19T05:47:08;11.40;99.90
29731;DHT22;16639;51.488;0.152;2023-11-19T05:49:36;11.30;99.90
29731;DHT22;16639;51.488;0.152;2023-11-19T05:52:05;11.40;99.90
29731;DHT22;16639;51.488;0.152;2023-11-19T05:54:35;11.40;99.90
29731;DHT22;16639;51.488;0.152;2023-11-19T05:57:06;11.40;99.90
29731;DHT22;16639;51.488;0.152;2023-11-19T05:59:36;11.40;99.90
29731;DHT22;16639;51.488;0.152;2023-11-19T06:02:04;11.50;99.90
29731;DHT22;16639;51.488;0.152;2023-11-19T06:04:33;11.50;99.90
29731;DHT22;16639;51.488;0.152;2023-11-19T06:07:00;11.50;99.90
29731;DHT22;16639;51.488;0.152;2023-11-19T06:09:28;11.20;99.90
29731;DHT22;16639;51.488;0.152;2023-11-19T06:11:55;11.40;99.90
29731;DHT22;16639;51.488;0.152;2023-11-19T06:14:24;11.40;99.90
29731;DHT22;16639;51.488;0.152;2023-11-19T06:16:52;11.50;99.90
29731;DHT22;16639;51.488;0.152;2023-11-19T06:19:19;11.50;99.90
29731;DHT22;16639;51.488;0.152;2023-11-19T06:21:47;11.50;99.90
29731;DHT22;16639;51.488;0.152;2023-11-19T06:24:15;11.50;99.90
29731;DHT22;16639;51.488;0.152;2023-11-19T06:26:44;11.10;99.90
29731;DHT22;16639;51.488;0.152;2023-11-19T06:29:11;11.50;99.90
29731;DHT22;16639;51.488;0.152;2023-11-19T06:31:42;11.50;99.90
29731;DHT22;16639;51.488;0.152;2023-11-19T06:34:10;11.60;99.90
29731;DHT22;16639;51.488;0.152;2023-11-19T06:36:37;11.60;99.90
29731;DHT22;16639;51.488;0.152;2023-11-19T06:39:05;11.50;99.90
29731;DHT22;16639;51.488;0.152;2023-11-19T06:41:33;11.60;99.90
29731;DHT22;16639;51.488;0.152;2023-11-19T06:44:00;11.50;99.90
29731;DHT22;16639;51.488;0.152;2023-11-19T06:46:28;11.50;99.90
29731;DHT22;16639;51.488;0.152;2023-11-19T06:48:55;11.50;99.90
29731;DHT22;16639;51.488;0.152;2023-11-19T06:51:24;11.60;99.90
29731;DHT22;16639;51.488;0.152;2023-11-19T06:53:51;11.50;99.90
29731;DHT22;16639;51.488;0.152;2023-11-19T06:56:23;11.50;99.90
29731;DHT22;16639;51.488;0.152;2023-11-19T06:58:51;11.50;99.90
29731;DHT22;16639;51.488;0.152;2023-11-19T07:01:19;11.50;99.90
29731;DHT22;16639;51.488;0.152;2023-11-19T07:03:47;11.50;99.90
29731;DHT22;16639;51.488;0.152;2023-11-19T07:06:16;11.50;99.90
29731;DHT22;16639;51.488;0.152;2023-11-19T07:08:44;11.50;99.90
29731;DHT22;16639;51.488;0.152;2023-11-19T07:11:14;11.70;99.90
29731;DHT22;16639;51.488;0.152;2023-11-19T07:13:43;11.50;99.90
29731;DHT22;16639;51.488;0.152;2023-11-19T07:16:14;11.50;99.90
29731;DHT22;16639;51.488;0.152;2023-11-19T07:18:42;12.10;99.90
29731;DHT22;16639;51.488;0.152;2023-11-19T07:21:11;11.50;99.90
29731;DHT22;16639;51.488;0.152;2023-11-19T07:23:39;11.50;99.90
29731;DHT22;16639;51.488;0.152;2023-11-19T07:26:06;11.40;99.90
29731;DHT22;16639;51.488;0.152;2023-11-19T07:28:37;11.50;99.90
29731;DHT22;16639;51.488;0.152;2023-11-19T07:31:04;11.40;99.90
29731;DHT22;16639;51.488;0.152;2023-11-19T07:33:32;11.10;99.90
29731;DHT22;16639;51.488;0.152;2023-11-19T07:35:59;11.50;99.90
29731;DHT22;16639;51.488;0.152;2023-11-19T07:38:27;11.40;99.90
29731;DHT22;16639;51.488;0.152;2023-11-19T07:40:54;11.30;99.90
29731;DHT22;16639;51.488;0.152;2023-11-19T07:43:23;11.40;99.90
29731;DHT22;16639;51.488;0.152;2023-11-19T07:45:50;11.30;99.90
29731;DHT22;16639;51.488;0.152;2023-11-19T07:48:18;11.30;99.90
29731;DHT22;16639;51.488;0.152;2023-11-19T07:50:50;11.30;99.90
29731;DHT22;16639;51.488;0.152;2023-11-19T07:53:18;11.30;99.90
29731;DHT22;16639;51.488;0.152;2023-11-19T07:55:46;11.30;99.90
29731;DHT22;16639;51.488;0.152;2023-11-19T07:58:13;11.30;99.90
29731;DHT22;16639;51.488;0.152;2023-11-19T08:00:41;11.30;99.90
29731;DHT22;16639;51.488;0.152;2023-11-19T08:03:08;11.30;99.90
29731;DHT22;16639;51.488;0.152;2023-11-19T08:05:36;11.30;99.90
29731;DHT22;16639;51.488;0.152;2023-11-19T08:08:04;11.30;99.90
29731;DHT22;16639;51.488;0.152;2023-11-19T08:10:31;11.30;99.90
29731;DHT22;16639;51.488;0.152;2023-11-19T08:13:02;11.30;99.90
29731;DHT22;16639;51.488;0.152;2023-11-19T08:15:30;11.40;99.90
29731;DHT22;16639;51.488;0.152;2023-11-19T08:17:59;11.30;99.90
29731;DHT22;16639;51.488;0.152;2023-11-19T08:20:26;11.30;99.90
29731;DHT22;16639;51.488;0.152;2023-11-19T08:22:54;11.30;99.90
29731;DHT22;16639;51.488;0.152;2023-11-19T08:25:21;11.50;99.90
29731;DHT22;16639;51.488;0.152;2023-11-19T08:27:49;11.50;99.90
29731;DHT22;16639;51.488;0.152;2023-11-19T08:30:16;11.50;99.90
29731;DHT22;16639;51.488;0.152;2023-11-19T08:32:45;11.50;99.90
29731;DHT22;16639;51.488;0.152;2023-11-19T08:35:13;11.60;99.90
29731;DHT22;16639;51.488;0.152;2023-11-19T08:37:40;11.60;99.90
29731;DHT22;16639;51.488;0.152;2023-11-19T08:40:08;11.60;99.90
29731;DHT22;16639;51.488;0.152;2023-11-19T08:42:36;11.60;99.90
29731;DHT22;16639;51.488;0.152;2023-11-19T08:45:07;11.60;99.90
29731;DHT22;16639;51.488;0.152;2023-11-19T08:47:37;11.60;99.90
29731;DHT22;16639;51.488;0.152;2023-11-19T08:50:05;11.60;99.90
29731;DHT22;16639;51.488;0.152;2023-11-19T08:52:33;11.70;99.90
29731;DHT22;16639;51.488;0.152;2023-11-19T08:55:01;11.70;99.90
29731;DHT22;16639;51.488;0.152;2023-11-19T08:57:29;11.70;99.90
29731;DHT22;16639;51.488;0.152;2023-11-19T08:59:57;11.70;99.90
29731;DHT22;16639;51.488;0.152;2023-11-19T09:02:24;11.80;99.90
29731;DHT22;16639;51.488;0.152;2023-11-19T09:04:52;11.80;99.90
29731;DHT22;16639;51.488;0.152;2023-11-19T09:07:20;11.80;99.90
29731;DHT22;16639;51.488;0.152;2023-11-19T09:09:48;11.80;99.90
29731;DHT22;16639;51.488;0.152;2023-11-19T09:12:16;11.80;99.90
29731;DHT22;16639;51.488;0.152;2023-11-19T09:14:43;12.60;99.90
29731;DHT22;16639;51.488;0.152;2023-11-19T09:17:12;11.90;99.90
29731;DHT22;16639;51.488;0.152;2023-11-19T09:19:40;11.90;99.90
29731;DHT22;16639;51.488;0.152;2023-11-19T09:22:08;11.90;99.90
29731;DHT22;16639;51.488;0.152;2023-11-19T09:24:35;12.00;99.90
29731;DHT22;16639;51.488;0.152;2023-11-19T09:27:03;12.00;99.90
29731;DHT22;16639;51.488;0.152;2023-11-19T09:29:33;12.10;99.90
29731;DHT22;16639;51.488;0.152;2023-11-19T09:32:01;11.70;99.90
29731;DHT22;16639;51.488;0.152;2023-11-19T09:34:32;12.10;99.90
29731;DHT22;16639;51.488;0.152;2023-11-19T09:36:59;12.10;99.90
29731;DHT22;16639;51.488;0.152;2023-11-19T09:39:27;12.20;99.90
29731;DHT22;16639;51.488;0.152;2023-11-19T09:41:54;12.20;99.90
29731;DHT22;16639;51.488;0.152;2023-11-19T09:44:22;12.30;99.90
29731;DHT22;16639;51.488;0.152;2023-11-19T09:46:52;12.30;99.90
29731;DHT22;16639;51.488;0.152;2023-11-19T09:49:21;12.40;99.90
29731;DHT22;16639;51.488;0.152;2023-11-19T09:51:54;12.30;99.90
29731;DHT22;16639;51.488;0.152;2023-11-19T09:54:22;12.30;99.90
29731;DHT22;16639;51.488;0.152;2023-11-19T09:56:49;12.30;99.90
29731;DHT22;16639;51.488;0.152;2023-11-19T09:59:17;12.20;99.90
29731;DHT22;16639;51.488;0.152;2023-11-19T10:01:46;12.20;99.90
29731;DHT22;16639;51.488;0.152;2023-11-19T10:04:16;11.40;99.90
29731;DHT22;16639;51.488;0.152;2023-11-19T10:06:44;12.10;99.90
29731;DHT22;16639;51.488;0.152;2023-11-19T10:09:12;12.10;99.90
29731;DHT22;16639;51.488;0.152;2023-11-19T10:11:42;12.10;99.90
29731;DHT22;16639;51.488;0.152;2023-11-19T10:14:10;12.10;99.90
29731;DHT22;16639;51.488;0.152;2023-11-19T10:16:38;12.00;99.90
29731;DHT22;16639;51.488;0.152;2023-11-19T10:19:05;12.00;99.90
29731;DHT22;16639;51.488;0.152;2023-11-19T10:21:33;12.00;99.90
29731;DHT22;16639;51.488;0.152;2023-11-19T10:24:04;12.00;99.90
29731;DHT22;16639;51.488;0.152;2023-11-19T10:26:36;12.00;99.90
29731;DHT22;16639;51.488;0.152;2023-11-19T10:29:04;12.60;99.90
29731;DHT22;16639;51.488;0.152;2023-11-19T10:31:31;12.00;99.90
29731;DHT22;16639;51.488;0.152;2023-11-19T10:33:59;12.10;99.90
29731;DHT22;16639;51.488;0.152;2023-11-19T10:36:40;12.20;99.90
29731;DHT22;16639;51.488;0.152;2023-11-19T10:39:08;12.20;99.90
29731;DHT22;16639;51.488;0.152;2023-11-19T10:41:36;12.30;99.90
29731;DHT22;16639;51.488;0.152;2023-11-19T10:44:04;12.40;99.90
29731;DHT22;16639;51.488;0.152;2023-11-19T10:46:40;12.50;99.90
29731;DHT22;16639;51.488;0.152;2023-11-19T10:49:09;12.60;99.90
29731;DHT22;16639;51.488;0.152;2023-11-19T10:51:36;12.70;99.90
29731;DHT22;16639;51.488;0.152;2023-11-19T10:54:06;12.80;99.90
29731;DHT22;16639;51.488;0.152;2023-11-19T10:56:34;12.90;99.90
29731;DHT22;16639;51.488;0.152;2023-11-19T10:59:02;12.20;99.90
29731;DHT22;16639;51.488;0.152;2023-11-19T11:01:52;13.60;99.90
29731;DHT22;16639;51.488;0.152;2023-11-19T11:04:24;13.20;99.90
29731;DHT22;16639;51.488;0.152;2023-11-19T11:06:58;13.20;99.90
29731;DHT22;16639;51.488;0.152;2023-11-19T11:09:27;13.20;99.90
29731;DHT22;16639;51.488;0.152;2023-11-19T11:11:55;13.20;99.90
29731;DHT22;16639;51.488;0.152;2023-11-19T11:14:25;13.20;99.90
29731;DHT22;16639;51.488;0.152;2023-11-19T11:16:55;13.30;99.90
29731;DHT22;16639;51.488;0.152;2023-11-19T11:19:24;13.20;99.90
29731;DHT22;16639;51.488;0.152;2023-11-19T11:21:53;13.20;99.90
29731;DHT22;16639;51.488;0.152;2023-11-19T11:27:17;13.70;99.90
29731;DHT22;16639;51.488;0.152;2023-11-19T11:32:51;13.30;99.90
29731;DHT22;16639;51.488;0.152;2023-11-19T11:35:27;13.30;99.90
29731;DHT22;16639;51.488;0.152;2023-11-19T11:38:08;13.30;99.90
29731;DHT22;16639;51.488;0.152;2023-11-19T11:40:35;13.20;99.90
29731;DHT22;16639;51.488;0.152;2023-11-19T11:49:06;13.30;99.90
29731;DHT22;16639;51.488;0.152;2023-11-19T11:52:00;14.30;99.90
29731;DHT22;16639;51.488;0.152;2023-11-19T11:54:29;13.30;99.90
29731;DHT22;16639;51.488;0.152;2023-11-19T11:57:12;13.40;99.90
29731;DHT22;16639;51.488;0.152;2023-11-19T12:02:11;13.40;99.90
29731;DHT22;16639;51.488;0.152;2023-11-19T12:04:50;13.40;99.90
29731;DHT22;16639;51.488;0.152;2023-11-19T12:07:21;13.30;99.90
29731;DHT22;16639;51.488;0.152;2023-11-19T12:10:05;13.30;99.90
29731;DHT22;16639;51.488;0.152;2023-11-19T12:12:34;13.30;99.90
29731;DHT22;16639;51.488;0.152;2023-11-19T12:15:09;13.30;99.90
29731;DHT22;16639;51.488;0.152;2023-11-19T12:17:48;13.30;99.90
29731;DHT22;16639;51.488;0.152;2023-11-19T12:20:23;13.30;99.90
29731;DHT22;16639;51.488;0.152;2023-11-19T12:22:54;13.40;99.90
29731;DHT22;16639;51.488;0.152;2023-11-19T12:25:22;13.70;99.90
29731;DHT22;16639;51.488;0.152;2023-11-19T12:27:51;13.50;99.90
29731;DHT22;16639;51.488;0.152;2023-11-19T12:30:23;13.50;99.90
29731;DHT22;16639;51.488;0.152;2023-11-19T12:32:54;13.50;99.90
29731;DHT22;16639;51.488;0.152;2023-11-19T12:35:23;13.60;99.90
29731;DHT22;16639;51.488;0.152;2023-11-19T12:37:51;13.60;99.90
29731;DHT22;16639;51.488;0.152;2023-11-19T12:40:22;13.60;99.90
29731;DHT22;16639;51.488;0.152;2023-11-19T12:42:52;13.60;99.90
29731;DHT22;16639;51.488;0.152;2023-11-19T12:45:20;13.70;99.90
29731;DHT22;16639;51.488;0.152;2023-11-19T12:48:07;13.70;99.90
29731;DHT22;16639;51.488;0.152;2023-11-19T12:50:53;13.70;99.90
29731;DHT22;16639;51.488;0.152;2023-11-19T12:53:21;13.70;99.90
29731;DHT22;16639;51.488;0.152;2023-11-19T12:55:51;13.70;99.90
29731;DHT22;16639;51.488;0.152;2023-11-19T12:58:35;13.70;99.90
29731;DHT22;16639;51.488;0.152;2023-11-19T13:01:06;13.70;99.90
29731;DHT22;16639;51.488;0.152;2023-11-19T13:03:38;13.70;99.90
29731;DHT22;16639;51.488;0.152;2023-11-19T13:06:07;13.70;99.90
29731;DHT22;16639;51.488;0.152;2023-11-19T13:08:36;13.70;99.90
29731;DHT22;16639;51.488;0.152;2023-11-19T13:11:05;13.60;99.90
29731;DHT22;16639;51.488;0.152;2023-11-19T13:13:55;13.60;99.90
29731;DHT22;16639;51.488;0.152;2023-11-19T13:16:24;13.60;99.90
29731;DHT22;16639;51.488;0.152;2023-11-19T13:18:51;13.60;99.90
29731;DHT22;16639;51.488;0.152;2023-11-19T13:21:19;13.60;99.90
29731;DHT22;16639;51.488;0.152;2023-11-19T13:23:46;13.60;99.90
29731;DHT22;16639;51.488;0.152;2023-11-19T13:26:14;13.60;99.90
29731;DHT22;16639;51.488;0.152;2023-11-19T13:28:41;13.60;99.90
29731;DHT22;16639;51.488;0.152;2023-11-19T13:31:09;13.70;99.90
29731;DHT22;16639;51.488;0.152;2023-11-19T13:33:38;13.80;99.90
29731;DHT22;16639;51.488;0.152;2023-11-19T13:36:05;13.60;99.90
29731;DHT22;16639;51.488;0.152;2023-11-19T13:38:37;13.60;99.90
29731;DHT22;16639;51.488;0.152;2023-11-19T13:41:05;13.70;99.90
29731;DHT22;16639;51.488;0.152;2023-11-19T13:43:33;13.70;99.90
29731;DHT22;16639;51.488;0.152;2023-11-19T13:46:00;13.70;99.90
29731;DHT22;16639;51.488;0.152;2023-11-19T13:48:28;13.80;99.90
29731;DHT22;16639;51.488;0.152;2023-11-19T13:50:56;13.60;99.90
29731;DHT22;16639;51.488;0.152;2023-11-19T13:53:23;13.50;99.90
29731;DHT22;16639;51.488;0.152;2023-11-19T13:55:51;13.60;99.90
29731;DHT22;16639;51.488;0.152;2023-11-19T13:58:18;13.60;99.90
29731;DHT22;16639;51.488;0.152;2023-11-19T14:00:46;13.60;99.90
29731;DHT22;16639;51.488;0.152;2023-11-19T14:03:13;13.60;99.90
29731;DHT22;16639;51.488;0.152;2023-11-19T14:05:41;13.60;99.90
29731;DHT22;16639;51.488;0.152;2023-11-19T14:08:09;13.70;99.90
29731;DHT22;16639;51.488;0.152;2023-11-19T14:10:52;13.60;99.90
29731;DHT22;16639;51.488;0.152;2023-11-19T14:13:23;13.90;99.90
29731;DHT22;16639;51.488;0.152;2023-11-19T14:15:50;13.60;99.90
29731;DHT22;16639;51.488;0.152;2023-11-19T14:18:18;13.60;99.90
29731;DHT22;16639;51.488;0.152;2023-11-19T14:20:46;13.60;99.90
29731;DHT22;16639;51.488;0.152;2023-11-19T14:23:13;13.60;99.90
29731;DHT22;16639;51.488;0.152;2023-11-19T14:25:40;13.60;99.90
29731;DHT22;16639;51.488;0.152;2023-11-19T14:28:08;13.60;99.90
29731;DHT22;16639;51.488;0.152;2023-11-19T14:30:35;13.60;99.90
29731;DHT22;16639;51.488;0.152;2023-11-19T14:33:03;13.50;99.90
29731;DHT22;16639;51.488;0.152;2023-11-19T14:35:31;13.50;99.90
29731;DHT22;16639;51.488;0.152;2023-11-19T14:38:00;13.50;99.90
29731;DHT22;16639;51.488;0.152;2023-11-19T14:40:27;13.40;99.90
29731;DHT22;16639;51.488;0.152;2023-11-19T14:42:58;13.70;99.90
29731;DHT22;16639;51.488;0.152;2023-11-19T14:45:25;13.50;99.90
29731;DHT22;16639;51.488;0.152;2023-11-19T14:47:55;13.50;99.90
29731;DHT22;16639;51.488;0.152;2023-11-19T14:50:23;13.50;99.90
29731;DHT22;16639;51.488;0.152;2023-11-19T14:52:51;13.50;99.90
29731;DHT22;16639;51.488;0.152;2023-11-19T14:55:18;13.50;99.90
29731;DHT22;16639;51.488;0.152;2023-11-19T14:57:45;13.50;99.90
29731;DHT22;16639;51.488;0.152;2023-11-19T15:00:23;13.50;99.90
29731;DHT22;16639;51.488;0.152;2023-11-19T15:02:52;13.50;99.90
29731;DHT22;16639;51.488;0.152;2023-11-19T15:05:21;13.50;99.90
29731;DHT22;16639;51.488;0.152;2023-11-19T15:07:49;13.40;99.90
29731;DHT22;16639;51.488;0.152;2023-11-19T15:10:16;13.50;99.90
29731;DHT22;16639;51.488;0.152;2023-11-19T15:12:43;13.50;99.90
29731;DHT22;16639;51.488;0.152;2023-11-19T15:15:11;13.20;99.90
29731;DHT22;16639;51.488;0.152;2023-11-19T15:17:42;14.70;99.90
29731;DHT22;16639;51.488;0.152;2023-11-19T15:20:09;13.40;99.90
29731;DHT22;16639;51.488;0.152;2023-11-19T15:22:38;13.50;99.90
29731;DHT22;16639;51.488;0.152;2023-11-19T15:25:05;13.40;99.90
29731;DHT22;16639;51.488;0.152;2023-11-19T15:27:37;13.40;99.90
29731;DHT22;16639;51.488;0.152;2023-11-19T15:30:06;13.30;99.90
29731;DHT22;16639;51.488;0.152;2023-11-19T15:32:33;13.40;99.90
29731;DHT22;16639;51.488;0.152;2023-11-19T15:35:02;13.40;99.90
29731;DHT22;16639;51.488;0.152;2023-11-19T15:37:45;13.40;99.90
29731;DHT22;16639;51.488;0.152;2023-11-19T15:40:13;13.30;99.90
29731;DHT22;16639;51.488;0.152;2023-11-19T15:42:43;13.40;99.90
29731;DHT22;16639;51.488;0.152;2023-11-19T15:45:15;13.40;99.90
29731;DHT22;16639;51.488;0.152;2023-11-19T15:47:43;13.30;99.90
29731;DHT22;16639;51.488;0.152;2023-11-19T15:50:11;13.30;99.90
29731;DHT22;16639;51.488;0.152;2023-11-19T15:52:38;13.30;99.90
29731;DHT22;16639;51.488;0.152;2023-11-19T15:55:08;13.20;99.90